Main page


Airports :

Angoulême, France

Angoulême – Cognac International Airport

latitude: 45-43-46N, longitude: 00-13-08E, elevation: 132 m

METAR: missing

Time: 00:15 (23:15 UTC)


The report was made 30 hours and 15 minutes ago, at 17:00 UTC
Forecast valid from 21 at 18 UTC to 22 at 18 UTC
Wind 10 kt from the North
Visibility 10 km or more
no clouds below 1500 m and no cumulonimbus
from 22 at 00 UTC to 22 at 02 UTC
Wind 2 kt from variable directions
Probability 40% :
from 22 at 02 UTC to 22 at 07 UTC
Visibility: 0500 m
patches of fog
from 22 at 09 UTC to 22 at 11 UTC
Wind 10 kt from the West/Northwest
Broken clouds at a height of 3000 ft

TAF: LFBU 211700Z 2118/2218 36010KT CAVOK BECMG 2200/2202 VRB02KT PROB40 TEMPO 2202/2207 0500 BCFG BECMG 2209/2211 30010KT BKN030

Weather observations and forecasts of more than 4000 airports (METAR and TAF reports).

The available stations are represented by yellow and red dots on the map.

Hover mouse over dot to see the name of the station.

Then click to see weather observations and forecasts.

To change the map : click on the green buttons with a black cross to zoom in, on the green button with a dash to zoom out, or on the green arrows for adjacent maps.